sensor_id;sensor_type;location;lat;lon;timestamp;P1;durP1;ratioP1;P2;durP2;ratioP2
72109;SDS011;59983;52.010;5.420;2023-12-28T00:01:46;2.28;;;2.17;;
72109;SDS011;59983;52.010;5.420;2023-12-28T00:04:12;2.78;;;2.67;;
72109;SDS011;59983;52.010;5.420;2023-12-28T00:06:39;4.27;;;4.07;;
72109;SDS011;59983;52.010;5.420;2023-12-28T00:09:07;2.80;;;2.60;;
72109;SDS011;59983;52.010;5.420;2023-12-28T00:11:37;2.67;;;2.47;;
72109;SDS011;59983;52.010;5.420;2023-12-28T00:14:05;2.08;;;1.98;;
72109;SDS011;59983;52.010;5.420;2023-12-28T00:16:31;2.42;;;2.28;;
72109;SDS011;59983;52.010;5.420;2023-12-28T00:19:03;2.37;;;2.27;;
72109;SDS011;59983;52.010;5.420;2023-12-28T00:21:31;2.60;;;2.40;;
72109;SDS011;59983;52.010;5.420;2023-12-28T00:23:57;2.65;;;2.55;;
72109;SDS011;59983;52.010;5.420;2023-12-28T00:26:24;1.90;;;1.80;;
72109;SDS011;59983;52.010;5.420;2023-12-28T00:28:51;2.30;;;1.90;;
72109;SDS011;59983;52.010;5.420;2023-12-28T00:31:17;1.90;;;1.80;;
72109;SDS011;59983;52.010;5.420;2023-12-28T00:33:44;2.45;;;2.25;;
72109;SDS011;59983;52.010;5.420;2023-12-28T00:36:11;2.10;;;2.00;;
72109;SDS011;59983;52.010;5.420;2023-12-28T00:38:37;1.88;;;1.77;;
72109;SDS011;59983;52.010;5.420;2023-12-28T00:41:04;2.38;;;1.95;;
72109;SDS011;59983;52.010;5.420;2023-12-28T00:43:30;3.20;;;2.20;;
72109;SDS011;59983;52.010;5.420;2023-12-28T00:45:57;2.17;;;2.08;;
72109;SDS011;59983;52.010;5.420;2023-12-28T00:48:24;2.20;;;2.10;;
72109;SDS011;59983;52.010;5.420;2023-12-28T00:50:51;2.33;;;2.22;;
72109;SDS011;59983;52.010;5.420;2023-12-28T00:53:17;2.13;;;2.03;;
72109;SDS011;59983;52.010;5.420;2023-12-28T00:55:44;2.33;;;2.23;;
72109;SDS011;59983;52.010;5.420;2023-12-28T00:58:10;1.90;;;1.80;;
72109;SDS011;59983;52.010;5.420;2023-12-28T01:00:37;2.40;;;2.30;;
72109;SDS011;59983;52.010;5.420;2023-12-28T01:03:04;2.33;;;2.00;;
72109;SDS011;59983;52.010;5.420;2023-12-28T01:05:30;2.30;;;2.10;;
72109;SDS011;59983;52.010;5.420;2023-12-28T01:07:57;2.50;;;2.40;;
72109;SDS011;59983;52.010;5.420;2023-12-28T01:10:24;2.22;;;2.13;;
72109;SDS011;59983;52.010;5.420;2023-12-28T01:12:50;2.50;;;2.40;;
72109;SDS011;59983;52.010;5.420;2023-12-28T01:15:17;2.55;;;2.45;;
72109;SDS011;59983;52.010;5.420;2023-12-28T01:17:46;2.20;;;2.10;;
72109;SDS011;59983;52.010;5.420;2023-12-28T01:20:13;2.83;;;2.70;;
72109;SDS011;59983;52.010;5.420;2023-12-28T01:22:40;2.42;;;2.33;;
72109;SDS011;59983;52.010;5.420;2023-12-28T01:25:06;2.38;;;2.28;;
72109;SDS011;59983;52.010;5.420;2023-12-28T01:27:33;2.40;;;2.30;;
72109;SDS011;59983;52.010;5.420;2023-12-28T01:30:00;3.13;;;2.42;;
72109;SDS011;59983;52.010;5.420;2023-12-28T01:32:26;1.90;;;1.80;;
72109;SDS011;59983;52.010;5.420;2023-12-28T01:34:53;2.50;;;2.30;;
72109;SDS011;59983;52.010;5.420;2023-12-28T01:37:20;2.42;;;2.28;;
72109;SDS011;59983;52.010;5.420;2023-12-28T01:39:46;2.28;;;2.17;;
72109;SDS011;59983;52.010;5.420;2023-12-28T01:42:13;2.10;;;2.00;;
72109;SDS011;59983;52.010;5.420;2023-12-28T01:44:39;2.30;;;2.10;;
72109;SDS011;59983;52.010;5.420;2023-12-28T01:47:06;1.92;;;1.83;;
72109;SDS011;59983;52.010;5.420;2023-12-28T01:49:33;2.05;;;1.95;;
72109;SDS011;59983;52.010;5.420;2023-12-28T01:52:02;2.50;;;2.40;;
72109;SDS011;59983;52.010;5.420;2023-12-28T01:54:29;2.55;;;2.45;;
72109;SDS011;59983;52.010;5.420;2023-12-28T01:56:57;2.40;;;2.30;;
72109;SDS011;59983;52.010;5.420;2023-12-28T01:59:25;2.53;;;2.42;;
72109;SDS011;59983;52.010;5.420;2023-12-28T02:01:52;2.60;;;2.50;;
72109;SDS011;59983;52.010;5.420;2023-12-28T02:04:19;2.53;;;2.33;;
72109;SDS011;59983;52.010;5.420;2023-12-28T02:06:54;2.65;;;2.45;;
72109;SDS011;59983;52.010;5.420;2023-12-28T02:09:23;2.70;;;2.53;;
72109;SDS011;59983;52.010;5.420;2023-12-28T02:11:49;2.42;;;2.30;;
72109;SDS011;59983;52.010;5.420;2023-12-28T02:14:16;2.30;;;2.20;;
72109;SDS011;59983;52.010;5.420;2023-12-28T02:16:54;2.15;;;2.05;;
72109;SDS011;59983;52.010;5.420;2023-12-28T02:19:40;2.40;;;2.30;;
72109;SDS011;59983;52.010;5.420;2023-12-28T02:22:17;2.30;;;2.20;;
72109;SDS011;59983;52.010;5.420;2023-12-28T02:25:27;2.67;;;2.47;;
72109;SDS011;59983;52.010;5.420;2023-12-28T02:27:36;2.35;;;2.17;;
72109;SDS011;59983;52.010;5.420;2023-12-28T02:30:13;2.13;;;2.00;;
72109;SDS011;59983;52.010;5.420;2023-12-28T02:32:44;2.25;;;2.15;;
72109;SDS011;59983;52.010;5.420;2023-12-28T02:38:05;2.30;;;2.20;;
72109;SDS011;59983;52.010;5.420;2023-12-28T02:40:38;2.80;;;2.70;;
72109;SDS011;59983;52.010;5.420;2023-12-28T02:43:06;2.72;;;2.63;;
72109;SDS011;59983;52.010;5.420;2023-12-28T02:45:34;3.15;;;2.92;;
72109;SDS011;59983;52.010;5.420;2023-12-28T02:48:02;2.53;;;2.43;;
72109;SDS011;59983;52.010;5.420;2023-12-28T02:50:30;2.45;;;2.35;;
72109;SDS011;59983;52.010;5.420;2023-12-28T02:52:58;2.58;;;2.47;;
72109;SDS011;59983;52.010;5.420;2023-12-28T02:55:25;2.58;;;2.47;;
72109;SDS011;59983;52.010;5.420;2023-12-28T02:57:55;2.40;;;2.30;;
72109;SDS011;59983;52.010;5.420;2023-12-28T03:00:26;2.40;;;2.30;;
72109;SDS011;59983;52.010;5.420;2023-12-28T03:02:54;3.05;;;2.95;;
72109;SDS011;59983;52.010;5.420;2023-12-28T03:05:20;2.58;;;2.45;;
72109;SDS011;59983;52.010;5.420;2023-12-28T03:07:47;2.42;;;2.33;;
72109;SDS011;59983;52.010;5.420;2023-12-28T03:10:14;2.80;;;2.60;;
72109;SDS011;59983;52.010;5.420;2023-12-28T03:12:40;2.83;;;2.73;;
72109;SDS011;59983;52.010;5.420;2023-12-28T03:15:07;2.30;;;2.20;;
72109;SDS011;59983;52.010;5.420;2023-12-28T03:17:34;2.30;;;2.20;;
72109;SDS011;59983;52.010;5.420;2023-12-28T03:20:03;2.53;;;2.42;;
72109;SDS011;59983;52.010;5.420;2023-12-28T03:22:30;2.72;;;2.63;;
72109;SDS011;59983;52.010;5.420;2023-12-28T03:24:57;2.50;;;2.40;;
72109;SDS011;59983;52.010;5.420;2023-12-28T03:27:24;2.78;;;2.67;;
72109;SDS011;59983;52.010;5.420;2023-12-28T03:29:51;1.92;;;1.83;;
72109;SDS011;59983;52.010;5.420;2023-12-28T03:32:17;2.92;;;2.80;;
72109;SDS011;59983;52.010;5.420;2023-12-28T03:34:44;2.70;;;2.60;;
72109;SDS011;59983;52.010;5.420;2023-12-28T03:37:10;2.50;;;2.37;;
72109;SDS011;59983;52.010;5.420;2023-12-28T03:39:37;2.95;;;2.75;;
72109;SDS011;59983;52.010;5.420;2023-12-28T03:42:04;2.50;;;2.40;;
72109;SDS011;59983;52.010;5.420;2023-12-28T03:44:31;2.67;;;2.53;;
72109;SDS011;59983;52.010;5.420;2023-12-28T03:46:57;2.80;;;2.70;;
72109;SDS011;59983;52.010;5.420;2023-12-28T03:49:24;2.50;;;2.40;;
72109;SDS011;59983;52.010;5.420;2023-12-28T03:51:51;2.38;;;2.22;;
72109;SDS011;59983;52.010;5.420;2023-12-28T03:54:18;2.65;;;2.55;;
72109;SDS011;59983;52.010;5.420;2023-12-28T03:56:46;3.00;;;2.80;;
72109;SDS011;59983;52.010;5.420;2023-12-28T03:59:13;2.78;;;2.67;;
72109;SDS011;59983;52.010;5.420;2023-12-28T04:01:41;2.53;;;2.43;;
72109;SDS011;59983;52.010;5.420;2023-12-28T04:04:08;2.72;;;2.63;;
72109;SDS011;59983;52.010;5.420;2023-12-28T04:06:35;2.28;;;2.17;;
72109;SDS011;59983;52.010;5.420;2023-12-28T04:09:03;2.60;;;2.20;;
72109;SDS011;59983;52.010;5.420;2023-12-28T04:11:30;2.10;;;2.00;;
72109;SDS011;59983;52.010;5.420;2023-12-28T04:13:56;2.30;;;2.20;;
72109;SDS011;59983;52.010;5.420;2023-12-28T04:16:23;2.40;;;2.30;;
72109;SDS011;59983;52.010;5.420;2023-12-28T04:18:49;1.92;;;1.83;;
72109;SDS011;59983;52.010;5.420;2023-12-28T04:21:16;2.40;;;2.25;;
72109;SDS011;59983;52.010;5.420;2023-12-28T04:23:43;3.63;;;2.53;;
72109;SDS011;59983;52.010;5.420;2023-12-28T04:26:09;1.93;;;1.83;;
72109;SDS011;59983;52.010;5.420;2023-12-28T04:28:36;2.85;;;2.65;;
72109;SDS011;59983;52.010;5.420;2023-12-28T04:31:03;2.67;;;2.58;;
72109;SDS011;59983;52.010;5.420;2023-12-28T04:33:30;2.60;;;2.50;;
72109;SDS011;59983;52.010;5.420;2023-12-28T04:36:00;2.70;;;2.60;;
72109;SDS011;59983;52.010;5.420;2023-12-28T04:38:29;3.07;;;2.87;;
72109;SDS011;59983;52.010;5.420;2023-12-28T04:40:57;2.83;;;2.63;;
72109;SDS011;59983;52.010;5.420;2023-12-28T04:43:24;2.40;;;2.30;;
72109;SDS011;59983;52.010;5.420;2023-12-28T04:45:51;2.20;;;2.10;;
72109;SDS011;59983;52.010;5.420;2023-12-28T04:48:18;2.22;;;2.13;;
72109;SDS011;59983;52.010;5.420;2023-12-28T04:50:48;2.63;;;2.53;;
72109;SDS011;59983;52.010;5.420;2023-12-28T04:53:15;2.50;;;2.40;;
72109;SDS011;59983;52.010;5.420;2023-12-28T04:55:41;2.45;;;2.05;;
72109;SDS011;59983;52.010;5.420;2023-12-28T04:58:10;2.88;;;2.65;;
72109;SDS011;59983;52.010;5.420;2023-12-28T05:00:38;2.10;;;2.00;;
72109;SDS011;59983;52.010;5.420;2023-12-28T05:03:05;2.83;;;2.63;;
72109;SDS011;59983;52.010;5.420;2023-12-28T05:05:32;2.22;;;2.13;;
72109;SDS011;59983;52.010;5.420;2023-12-28T05:07:59;2.28;;;2.17;;
72109;SDS011;59983;52.010;5.420;2023-12-28T05:10:26;1.90;;;1.80;;
72109;SDS011;59983;52.010;5.420;2023-12-28T05:12:53;2.53;;;2.42;;
72109;SDS011;59983;52.010;5.420;2023-12-28T05:15:27;2.17;;;2.07;;
72109;SDS011;59983;52.010;5.420;2023-12-28T05:17:54;2.50;;;2.40;;
72109;SDS011;59983;52.010;5.420;2023-12-28T05:20:21;2.53;;;2.42;;
72109;SDS011;59983;52.010;5.420;2023-12-28T05:22:47;2.90;;;2.80;;
72109;SDS011;59983;52.010;5.420;2023-12-28T05:25:14;2.50;;;2.35;;
72109;SDS011;59983;52.010;5.420;2023-12-28T05:27:41;2.23;;;2.00;;
72109;SDS011;59983;52.010;5.420;2023-12-28T05:30:09;2.10;;;2.00;;
72109;SDS011;59983;52.010;5.420;2023-12-28T05:32:37;2.40;;;2.20;;
72109;SDS011;59983;52.010;5.420;2023-12-28T05:35:04;2.38;;;2.25;;
72109;SDS011;59983;52.010;5.420;2023-12-28T05:37:31;2.00;;;1.90;;
72109;SDS011;59983;52.010;5.420;2023-12-28T05:39:58;2.17;;;1.77;;
72109;SDS011;59983;52.010;5.420;2023-12-28T05:42:24;2.38;;;2.28;;
72109;SDS011;59983;52.010;5.420;2023-12-28T05:44:51;2.63;;;2.53;;
72109;SDS011;59983;52.010;5.420;2023-12-28T05:47:17;2.17;;;2.08;;
72109;SDS011;59983;52.010;5.420;2023-12-28T05:49:44;2.65;;;2.45;;
72109;SDS011;59983;52.010;5.420;2023-12-28T05:52:11;2.60;;;2.50;;
72109;SDS011;59983;52.010;5.420;2023-12-28T05:54:41;2.88;;;2.65;;
72109;SDS011;59983;52.010;5.420;2023-12-28T05:57:10;2.40;;;2.30;;
72109;SDS011;59983;52.010;5.420;2023-12-28T05:59:39;2.97;;;2.63;;
72109;SDS011;59983;52.010;5.420;2023-12-28T06:02:06;2.97;;;2.88;;
72109;SDS011;59983;52.010;5.420;2023-12-28T06:04:33;3.20;;;2.90;;
72109;SDS011;59983;52.010;5.420;2023-12-28T06:07:00;2.53;;;2.33;;
72109;SDS011;59983;52.010;5.420;2023-12-28T06:09:28;2.08;;;1.98;;
72109;SDS011;59983;52.010;5.420;2023-12-28T06:11:55;3.22;;;2.47;;
72109;SDS011;59983;52.010;5.420;2023-12-28T06:14:21;3.00;;;2.55;;
72109;SDS011;59983;52.010;5.420;2023-12-28T06:16:48;3.20;;;2.90;;
72109;SDS011;59983;52.010;5.420;2023-12-28T06:19:14;2.10;;;2.00;;
72109;SDS011;59983;52.010;5.420;2023-12-28T06:21:41;2.47;;;2.33;;
72109;SDS011;59983;52.010;5.420;2023-12-28T06:24:09;2.50;;;2.35;;
72109;SDS011;59983;52.010;5.420;2023-12-28T06:26:38;2.72;;;2.55;;
72109;SDS011;59983;52.010;5.420;2023-12-28T06:29:06;2.30;;;2.10;;
72109;SDS011;59983;52.010;5.420;2023-12-28T06:31:33;2.83;;;2.20;;
72109;SDS011;59983;52.010;5.420;2023-12-28T06:34:03;2.25;;;2.15;;
72109;SDS011;59983;52.010;5.420;2023-12-28T06:36:31;2.55;;;2.40;;
72109;SDS011;59983;52.010;5.420;2023-12-28T06:38:58;2.63;;;2.42;;
72109;SDS011;59983;52.010;5.420;2023-12-28T06:41:25;4.03;;;2.80;;
72109;SDS011;59983;52.010;5.420;2023-12-28T06:43:52;2.63;;;2.53;;
72109;SDS011;59983;52.010;5.420;2023-12-28T06:46:19;2.60;;;2.50;;
72109;SDS011;59983;52.010;5.420;2023-12-28T06:48:46;2.78;;;2.58;;
72109;SDS011;59983;52.010;5.420;2023-12-28T06:51:17;2.08;;;1.98;;
72109;SDS011;59983;52.010;5.420;2023-12-28T06:53:48;3.03;;;2.50;;
72109;SDS011;59983;52.010;5.420;2023-12-28T06:56:16;2.63;;;2.05;;
72109;SDS011;59983;52.010;5.420;2023-12-28T06:58:43;2.05;;;1.90;;
72109;SDS011;59983;52.010;5.420;2023-12-28T07:01:10;2.35;;;2.20;;
72109;SDS011;59983;52.010;5.420;2023-12-28T07:03:37;2.53;;;2.17;;
72109;SDS011;59983;52.010;5.420;2023-12-28T07:06:04;2.80;;;2.53;;
72109;SDS011;59983;52.010;5.420;2023-12-28T07:08:31;2.78;;;2.55;;
72109;SDS011;59983;52.010;5.420;2023-12-28T07:11:01;2.40;;;2.30;;
72109;SDS011;59983;52.010;5.420;2023-12-28T07:13:29;2.58;;;2.38;;
72109;SDS011;59983;52.010;5.420;2023-12-28T07:15:56;3.95;;;2.40;;
72109;SDS011;59983;52.010;5.420;2023-12-28T07:18:25;3.10;;;2.80;;
72109;SDS011;59983;52.010;5.420;2023-12-28T07:20:52;3.13;;;2.88;;
72109;SDS011;59983;52.010;5.420;2023-12-28T07:23:18;3.00;;;2.80;;
72109;SDS011;59983;52.010;5.420;2023-12-28T07:25:45;2.45;;;2.33;;
72109;SDS011;59983;52.010;5.420;2023-12-28T07:28:12;3.35;;;2.38;;
72109;SDS011;59983;52.010;5.420;2023-12-28T07:30:39;2.73;;;2.63;;
72109;SDS011;59983;52.010;5.420;2023-12-28T07:33:07;2.25;;;2.15;;
72109;SDS011;59983;52.010;5.420;2023-12-28T07:35:34;2.75;;;2.55;;
72109;SDS011;59983;52.010;5.420;2023-12-28T07:38:01;3.72;;;3.08;;
72109;SDS011;59983;52.010;5.420;2023-12-28T07:40:28;3.35;;;2.75;;
72109;SDS011;59983;52.010;5.420;2023-12-28T07:42:55;3.07;;;2.87;;
72109;SDS011;59983;52.010;5.420;2023-12-28T07:45:23;2.97;;;2.80;;
72109;SDS011;59983;52.010;5.420;2023-12-28T07:47:50;2.45;;;2.22;;
72109;SDS011;59983;52.010;5.420;2023-12-28T07:50:18;2.60;;;2.40;;
72109;SDS011;59983;52.010;5.420;2023-12-28T07:52:45;2.88;;;2.70;;
72109;SDS011;59983;52.010;5.420;2023-12-28T07:55:15;2.40;;;2.20;;
72109;SDS011;59983;52.010;5.420;2023-12-28T07:57:42;3.22;;;2.17;;
72109;SDS011;59983;52.010;5.420;2023-12-28T08:00:10;2.65;;;2.45;;
72109;SDS011;59983;52.010;5.420;2023-12-28T08:02:37;3.45;;;2.65;;
72109;SDS011;59983;52.010;5.420;2023-12-28T08:05:04;3.88;;;3.03;;
72109;SDS011;59983;52.010;5.420;2023-12-28T08:07:31;3.37;;;3.10;;
72109;SDS011;59983;52.010;5.420;2023-12-28T08:09:58;3.45;;;3.08;;
72109;SDS011;59983;52.010;5.420;2023-12-28T08:12:25;3.92;;;3.00;;
72109;SDS011;59983;52.010;5.420;2023-12-28T08:14:54;3.83;;;2.75;;
72109;SDS011;59983;52.010;5.420;2023-12-28T08:17:21;3.20;;;2.90;;
72109;SDS011;59983;52.010;5.420;2023-12-28T08:19:48;2.90;;;2.47;;
72109;SDS011;59983;52.010;5.420;2023-12-28T08:22:15;3.92;;;2.92;;
72109;SDS011;59983;52.010;5.420;2023-12-28T08:24:42;2.75;;;2.55;;
72109;SDS011;59983;52.010;5.420;2023-12-28T08:27:08;2.95;;;2.65;;
72109;SDS011;59983;52.010;5.420;2023-12-28T08:29:35;3.63;;;2.30;;
72109;SDS011;59983;52.010;5.420;2023-12-28T08:32:02;3.10;;;2.80;;
72109;SDS011;59983;52.010;5.420;2023-12-28T08:34:29;3.10;;;2.90;;
72109;SDS011;59983;52.010;5.420;2023-12-28T08:36:56;4.43;;;3.10;;
72109;SDS011;59983;52.010;5.420;2023-12-28T08:39:23;3.38;;;3.08;;
72109;SDS011;59983;52.010;5.420;2023-12-28T08:41:49;5.70;;;3.22;;
72109;SDS011;59983;52.010;5.420;2023-12-28T08:44:16;4.03;;;2.77;;
72109;SDS011;59983;52.010;5.420;2023-12-28T08:46:42;5.85;;;3.13;;
72109;SDS011;59983;52.010;5.420;2023-12-28T08:49:09;4.38;;;2.75;;
72109;SDS011;59983;52.010;5.420;2023-12-28T08:51:35;4.22;;;2.83;;
72109;SDS011;59983;52.010;5.420;2023-12-28T08:54:02;3.00;;;2.53;;
72109;SDS011;59983;52.010;5.420;2023-12-28T08:56:28;5.03;;;2.80;;
72109;SDS011;59983;52.010;5.420;2023-12-28T08:58:56;6.60;;;3.75;;
72109;SDS011;59983;52.010;5.420;2023-12-28T09:01:23;4.15;;;2.42;;
72109;SDS011;59983;52.010;5.420;2023-12-28T09:03:56;3.40;;;2.67;;
72109;SDS011;59983;52.010;5.420;2023-12-28T09:06:22;4.05;;;2.67;;
72109;SDS011;59983;52.010;5.420;2023-12-28T09:08:50;2.67;;;2.27;;
72109;SDS011;59983;52.010;5.420;2023-12-28T09:11:18;5.22;;;2.92;;
72109;SDS011;59983;52.010;5.420;2023-12-28T09:13:45;5.85;;;2.80;;
72109;SDS011;59983;52.010;5.420;2023-12-28T09:16:12;3.53;;;2.13;;
72109;SDS011;59983;52.010;5.420;2023-12-28T09:18:41;3.45;;;2.13;;
72109;SDS011;59983;52.010;5.420;2023-12-28T09:21:09;3.90;;;3.30;;
72109;SDS011;59983;52.010;5.420;2023-12-28T09:23:36;5.07;;;2.38;;
72109;SDS011;59983;52.010;5.420;2023-12-28T09:26:03;4.47;;;3.00;;
72109;SDS011;59983;52.010;5.420;2023-12-28T09:28:31;3.53;;;2.40;;
72109;SDS011;59983;52.010;5.420;2023-12-28T09:30:59;7.68;;;2.38;;
72109;SDS011;59983;52.010;5.420;2023-12-28T09:33:27;6.70;;;2.97;;
72109;SDS011;59983;52.010;5.420;2023-12-28T09:35:54;5.03;;;2.75;;
72109;SDS011;59983;52.010;5.420;2023-12-28T09:38:20;4.97;;;2.13;;
72109;SDS011;59983;52.010;5.420;2023-12-28T09:40:48;6.00;;;2.75;;
72109;SDS011;59983;52.010;5.420;2023-12-28T09:43:22;3.45;;;2.20;;
72109;SDS011;59983;52.010;5.420;2023-12-28T09:45:51;2.97;;;1.93;;
72109;SDS011;59983;52.010;5.420;2023-12-28T09:48:20;2.80;;;2.60;;
72109;SDS011;59983;52.010;5.420;2023-12-28T09:50:51;2.92;;;2.22;;
72109;SDS011;59983;52.010;5.420;2023-12-28T09:53:22;2.92;;;2.65;;
72109;SDS011;59983;52.010;5.420;2023-12-28T09:55:49;3.63;;;2.35;;
72109;SDS011;59983;52.010;5.420;2023-12-28T09:58:18;13.27;;;2.77;;
72109;SDS011;59983;52.010;5.420;2023-12-28T10:00:47;5.85;;;2.70;;
72109;SDS011;59983;52.010;5.420;2023-12-28T10:03:15;6.00;;;2.38;;
72109;SDS011;59983;52.010;5.420;2023-12-28T10:05:44;5.13;;;2.97;;
72109;SDS011;59983;52.010;5.420;2023-12-28T10:08:14;4.75;;;2.80;;
72109;SDS011;59983;52.010;5.420;2023-12-28T10:10:42;6.17;;;2.53;;
72109;SDS011;59983;52.010;5.420;2023-12-28T10:13:12;4.13;;;2.58;;
72109;SDS011;59983;52.010;5.420;2023-12-28T10:15:42;3.83;;;2.67;;
72109;SDS011;59983;52.010;5.420;2023-12-28T10:18:12;5.07;;;2.95;;
72109;SDS011;59983;52.010;5.420;2023-12-28T10:20:39;4.63;;;2.50;;
72109;SDS011;59983;52.010;5.420;2023-12-28T10:23:06;5.20;;;2.37;;
72109;SDS011;59983;52.010;5.420;2023-12-28T10:25:33;4.60;;;2.80;;
72109;SDS011;59983;52.010;5.420;2023-12-28T10:28:03;5.72;;;2.65;;
72109;SDS011;59983;52.010;5.420;2023-12-28T10:30:32;3.30;;;2.58;;
72109;SDS011;59983;52.010;5.420;2023-12-28T10:32:59;5.43;;;2.55;;
72109;SDS011;59983;52.010;5.420;2023-12-28T10:35:27;2.80;;;2.47;;
72109;SDS011;59983;52.010;5.420;2023-12-28T10:37:54;4.00;;;2.50;;
72109;SDS011;59983;52.010;5.420;2023-12-28T10:40:25;6.45;;;3.15;;
72109;SDS011;59983;52.010;5.420;2023-12-28T10:42:54;6.22;;;3.28;;
72109;SDS011;59983;52.010;5.420;2023-12-28T10:45:25;6.50;;;2.90;;
72109;SDS011;59983;52.010;5.420;2023-12-28T10:48:14;6.00;;;2.70;;
72109;SDS011;59983;52.010;5.420;2023-12-28T10:56:18;4.60;;;3.25;;
72109;SDS011;59983;52.010;5.420;2023-12-28T11:01:56;3.63;;;3.00;;
72109;SDS011;59983;52.010;5.420;2023-12-28T11:04:41;6.47;;;3.28;;
72109;SDS011;59983;52.010;5.420;2023-12-28T11:07:11;7.70;;;3.53;;
72109;SDS011;59983;52.010;5.420;2023-12-28T11:09:41;3.45;;;3.15;;
72109;SDS011;59983;52.010;5.420;2023-12-28T11:12:08;4.65;;;2.95;;
72109;SDS011;59983;52.010;5.420;2023-12-28T11:14:40;5.43;;;3.20;;
72109;SDS011;59983;52.010;5.420;2023-12-28T11:17:10;5.85;;;2.95;;
72109;SDS011;59983;52.010;5.420;2023-12-28T11:19:37;4.32;;;2.70;;
72109;SDS011;59983;52.010;5.420;2023-12-28T11:22:05;6.97;;;2.85;;
72109;SDS011;59983;52.010;5.420;2023-12-28T11:24:32;12.82;;;3.25;;
72109;SDS011;59983;52.010;5.420;2023-12-28T11:27:00;5.37;;;2.77;;
72109;SDS011;59983;52.010;5.420;2023-12-28T11:29:29;4.93;;;3.28;;
72109;SDS011;59983;52.010;5.420;2023-12-28T11:31:57;4.68;;;3.00;;
72109;SDS011;59983;52.010;5.420;2023-12-28T11:34:25;4.13;;;2.75;;
72109;SDS011;59983;52.010;5.420;2023-12-28T11:36:54;3.53;;;2.83;;
72109;SDS011;59983;52.010;5.420;2023-12-28T11:39:32;8.03;;;3.37;;
72109;SDS011;59983;52.010;5.420;2023-12-28T11:42:04;7.05;;;3.50;;
72109;SDS011;59983;52.010;5.420;2023-12-28T11:44:39;9.75;;;2.80;;
72109;SDS011;59983;52.010;5.420;2023-12-28T11:47:11;4.00;;;3.00;;
72109;SDS011;59983;52.010;5.420;2023-12-28T11:49:41;6.10;;;2.83;;
72109;SDS011;59983;52.010;5.420;2023-12-28T11:52:09;5.37;;;2.73;;
72109;SDS011;59983;52.010;5.420;2023-12-28T11:54:37;5.90;;;2.95;;
72109;SDS011;59983;52.010;5.420;2023-12-28T11:57:04;6.05;;;2.92;;
72109;SDS011;59983;52.010;5.420;2023-12-28T11:59:31;4.40;;;3.30;;
72109;SDS011;59983;52.010;5.420;2023-12-28T12:01:58;6.93;;;3.03;;
72109;SDS011;59983;52.010;5.420;2023-12-28T12:04:25;5.03;;;3.17;;
72109;SDS011;59983;52.010;5.420;2023-12-28T12:06:52;3.83;;;3.25;;
72109;SDS011;59983;52.010;5.420;2023-12-28T12:09:19;6.18;;;2.63;;
72109;SDS011;59983;52.010;5.420;2023-12-28T12:11:49;5.63;;;3.13;;
72109;SDS011;59983;52.010;5.420;2023-12-28T12:14:16;7.40;;;2.75;;
72109;SDS011;59983;52.010;5.420;2023-12-28T12:16:42;3.63;;;2.80;;
72109;SDS011;59983;52.010;5.420;2023-12-28T12:19:10;4.03;;;2.80;;
72109;SDS011;59983;52.010;5.420;2023-12-28T12:21:37;4.93;;;2.50;;
72109;SDS011;59983;52.010;5.420;2023-12-28T12:24:04;6.63;;;2.40;;
72109;SDS011;59983;52.010;5.420;2023-12-28T12:26:31;4.13;;;3.00;;
72109;SDS011;59983;52.010;5.420;2023-12-28T12:28:58;5.17;;;3.17;;
72109;SDS011;59983;52.010;5.420;2023-12-28T12:31:24;5.40;;;3.50;;
72109;SDS011;59983;52.010;5.420;2023-12-28T12:33:52;5.93;;;3.10;;
72109;SDS011;59983;52.010;5.420;2023-12-28T12:36:20;4.90;;;3.05;;
72109;SDS011;59983;52.010;5.420;2023-12-28T12:38:48;6.05;;;3.08;;
72109;SDS011;59983;52.010;5.420;2023-12-28T12:41:15;6.07;;;3.33;;
72109;SDS011;59983;52.010;5.420;2023-12-28T12:43:42;5.90;;;2.60;;
72109;SDS011;59983;52.010;5.420;2023-12-28T12:46:09;7.22;;;3.38;;
72109;SDS011;59983;52.010;5.420;2023-12-28T12:48:35;4.60;;;2.95;;
72109;SDS011;59983;52.010;5.420;2023-12-28T12:51:02;5.20;;;2.60;;
72109;SDS011;59983;52.010;5.420;2023-12-28T12:53:33;8.33;;;3.37;;
72109;SDS011;59983;52.010;5.420;2023-12-28T12:56:01;5.35;;;2.40;;
72109;SDS011;59983;52.010;5.420;2023-12-28T12:58:30;7.35;;;3.20;;
72109;SDS011;59983;52.010;5.420;2023-12-28T13:01:00;8.05;;;3.08;;
72109;SDS011;59983;52.010;5.420;2023-12-28T13:03:27;7.03;;;3.20;;
72109;SDS011;59983;52.010;5.420;2023-12-28T13:05:56;8.20;;;3.37;;
72109;SDS011;59983;52.010;5.420;2023-12-28T13:08:23;5.50;;;2.90;;
72109;SDS011;59983;52.010;5.420;2023-12-28T13:10:50;5.70;;;2.95;;
72109;SDS011;59983;52.010;5.420;2023-12-28T13:13:17;5.85;;;3.10;;
72109;SDS011;59983;52.010;5.420;2023-12-28T13:15:43;6.47;;;3.47;;
72109;SDS011;59983;52.010;5.420;2023-12-28T13:18:10;7.50;;;3.40;;
72109;SDS011;59983;52.010;5.420;2023-12-28T13:20:37;5.00;;;3.30;;
72109;SDS011;59983;52.010;5.420;2023-12-28T13:23:04;4.68;;;2.85;;
72109;SDS011;59983;52.010;5.420;2023-12-28T13:25:33;4.20;;;3.10;;
72109;SDS011;59983;52.010;5.420;2023-12-28T13:28:00;5.50;;;3.35;;
72109;SDS011;59983;52.010;5.420;2023-12-28T13:30:26;4.17;;;3.17;;
72109;SDS011;59983;52.010;5.420;2023-12-28T13:32:55;5.60;;;3.22;;
72109;SDS011;59983;52.010;5.420;2023-12-28T13:35:26;4.65;;;3.15;;
72109;SDS011;59983;52.010;5.420;2023-12-28T13:37:52;5.28;;;3.33;;
72109;SDS011;59983;52.010;5.420;2023-12-28T13:40:19;5.03;;;3.45;;
72109;SDS011;59983;52.010;5.420;2023-12-28T13:42:46;4.70;;;2.30;;
72109;SDS011;59983;52.010;5.420;2023-12-28T13:45:13;5.00;;;2.95;;
72109;SDS011;59983;52.010;5.420;2023-12-28T13:47:40;3.80;;;3.17;;
72109;SDS011;59983;52.010;5.420;2023-12-28T13:50:06;5.30;;;2.80;;
72109;SDS011;59983;52.010;5.420;2023-12-28T13:52:33;4.93;;;3.15;;
72109;SDS011;59983;52.010;5.420;2023-12-28T13:55:00;3.97;;;3.13;;
72109;SDS011;59983;52.010;5.420;2023-12-28T13:57:27;6.38;;;3.58;;
72109;SDS011;59983;52.010;5.420;2023-12-28T13:59:53;5.22;;;2.95;;
72109;SDS011;59983;52.010;5.420;2023-12-28T14:02:22;6.25;;;3.42;;
72109;SDS011;59983;52.010;5.420;2023-12-28T14:04:50;4.22;;;3.38;;
72109;SDS011;59983;52.010;5.420;2023-12-28T14:07:17;5.43;;;3.23;;
72109;SDS011;59983;52.010;5.420;2023-12-28T14:09:44;6.03;;;3.90;;
72109;SDS011;59983;52.010;5.420;2023-12-28T14:12:10;6.47;;;3.25;;
72109;SDS011;59983;52.010;5.420;2023-12-28T14:14:37;6.30;;;3.70;;
72109;SDS011;59983;52.010;5.420;2023-12-28T14:17:03;3.97;;;2.70;;
72109;SDS011;59983;52.010;5.420;2023-12-28T14:19:31;3.73;;;3.00;;
72109;SDS011;59983;52.010;5.420;2023-12-28T14:21:58;5.75;;;3.95;;
72109;SDS011;59983;52.010;5.420;2023-12-28T14:24:26;7.55;;;2.60;;
72109;SDS011;59983;52.010;5.420;2023-12-28T14:26:54;5.70;;;3.13;;
72109;SDS011;59983;52.010;5.420;2023-12-28T14:29:21;5.63;;;2.72;;
72109;SDS011;59983;52.010;5.420;2023-12-28T14:31:48;6.90;;;2.87;;
72109;SDS011;59983;52.010;5.420;2023-12-28T14:34:16;3.40;;;2.75;;
72109;SDS011;59983;52.010;5.420;2023-12-28T14:36:44;6.70;;;2.70;;
72109;SDS011;59983;52.010;5.420;2023-12-28T14:39:16;5.63;;;3.60;;
72109;SDS011;59983;52.010;5.420;2023-12-28T14:41:45;3.53;;;2.75;;
72109;SDS011;59983;52.010;5.420;2023-12-28T14:44:12;3.53;;;3.20;;
72109;SDS011;59983;52.010;5.420;2023-12-28T14:46:38;3.53;;;2.65;;
72109;SDS011;59983;52.010;5.420;2023-12-28T14:49:05;7.03;;;3.30;;
72109;SDS011;59983;52.010;5.420;2023-12-28T14:51:32;3.08;;;2.33;;
72109;SDS011;59983;52.010;5.420;2023-12-28T14:53:58;4.82;;;2.92;;
72109;SDS011;59983;52.010;5.420;2023-12-28T14:56:25;5.30;;;2.70;;
72109;SDS011;59983;52.010;5.420;2023-12-28T14:58:58;6.43;;;3.05;;
72109;SDS011;59983;52.010;5.420;2023-12-28T15:01:24;4.53;;;3.20;;
72109;SDS011;59983;52.010;5.420;2023-12-28T15:03:51;4.63;;;3.08;;